sensor_id;sensor_type;location;lat;lon;timestamp;P1;durP1;ratioP1;P2;durP2;ratioP2
70247;SDS011;57641;51.416;5.506;2023-03-14T00:01:55;3.20;;;1.10;;
70247;SDS011;57641;51.416;5.506;2023-03-14T00:04:21;2.35;;;0.90;;
70247;SDS011;57641;51.416;5.506;2023-03-14T00:06:46;3.63;;;1.05;;
70247;SDS011;57641;51.416;5.506;2023-03-14T00:09:12;2.90;;;1.27;;
70247;SDS011;57641;51.416;5.506;2023-03-14T00:11:41;4.43;;;1.00;;
70247;SDS011;57641;51.416;5.506;2023-03-14T00:14:09;5.72;;;1.27;;
70247;SDS011;57641;51.416;5.506;2023-03-14T00:16:34;5.75;;;1.30;;
70247;SDS011;57641;51.416;5.506;2023-03-14T00:19:00;5.97;;;1.60;;
70247;SDS011;57641;51.416;5.506;2023-03-14T00:21:26;6.10;;;1.20;;
70247;SDS011;57641;51.416;5.506;2023-03-14T00:23:52;7.82;;;1.70;;
70247;SDS011;57641;51.416;5.506;2023-03-14T00:26:21;5.10;;;1.35;;
70247;SDS011;57641;51.416;5.506;2023-03-14T00:28:47;1.80;;;0.98;;
70247;SDS011;57641;51.416;5.506;2023-03-14T00:31:16;3.63;;;1.33;;
70247;SDS011;57641;51.416;5.506;2023-03-14T00:33:42;3.00;;;1.02;;
70247;SDS011;57641;51.416;5.506;2023-03-14T00:36:09;4.85;;;1.10;;
70247;SDS011;57641;51.416;5.506;2023-03-14T00:38:37;6.28;;;1.40;;
70247;SDS011;57641;51.416;5.506;2023-03-14T00:41:10;6.00;;;1.17;;
70247;SDS011;57641;51.416;5.506;2023-03-14T00:43:39;3.93;;;1.10;;
70247;SDS011;57641;51.416;5.506;2023-03-14T00:46:05;4.28;;;1.13;;
70247;SDS011;57641;51.416;5.506;2023-03-14T00:48:32;5.10;;;0.90;;
70247;SDS011;57641;51.416;5.506;2023-03-14T00:50:58;5.07;;;1.17;;
70247;SDS011;57641;51.416;5.506;2023-03-14T00:53:24;4.82;;;1.20;;
70247;SDS011;57641;51.416;5.506;2023-03-14T00:55:49;4.50;;;0.95;;
70247;SDS011;57641;51.416;5.506;2023-03-14T00:58:15;3.72;;;1.00;;
70247;SDS011;57641;51.416;5.506;2023-03-14T01:00:42;3.72;;;1.02;;
70247;SDS011;57641;51.416;5.506;2023-03-14T01:03:09;6.55;;;1.70;;
70247;SDS011;57641;51.416;5.506;2023-03-14T01:05:35;4.57;;;0.98;;
70247;SDS011;57641;51.416;5.506;2023-03-14T01:08:02;4.35;;;0.90;;
70247;SDS011;57641;51.416;5.506;2023-03-14T01:10:28;5.35;;;1.20;;
70247;SDS011;57641;51.416;5.506;2023-03-14T01:12:54;3.65;;;1.05;;
70247;SDS011;57641;51.416;5.506;2023-03-14T01:15:20;4.60;;;0.88;;
70247;SDS011;57641;51.416;5.506;2023-03-14T01:17:46;2.55;;;0.85;;
70247;SDS011;57641;51.416;5.506;2023-03-14T01:20:13;4.22;;;0.90;;
70247;SDS011;57641;51.416;5.506;2023-03-14T01:22:40;2.00;;;0.80;;
70247;SDS011;57641;51.416;5.506;2023-03-14T01:25:08;6.28;;;1.23;;
70247;SDS011;57641;51.416;5.506;2023-03-14T01:27:35;3.85;;;0.90;;
70247;SDS011;57641;51.416;5.506;2023-03-14T01:30:01;2.80;;;1.15;;
70247;SDS011;57641;51.416;5.506;2023-03-14T01:32:27;5.72;;;1.67;;
70247;SDS011;57641;51.416;5.506;2023-03-14T01:34:52;3.95;;;0.95;;
70247;SDS011;57641;51.416;5.506;2023-03-14T01:37:18;5.07;;;0.88;;
70247;SDS011;57641;51.416;5.506;2023-03-14T01:39:43;4.95;;;0.98;;
70247;SDS011;57641;51.416;5.506;2023-03-14T01:42:08;4.85;;;0.85;;
70247;SDS011;57641;51.416;5.506;2023-03-14T01:44:47;3.33;;;0.88;;
70247;SDS011;57641;51.416;5.506;2023-03-14T01:47:21;3.25;;;1.00;;
70247;SDS011;57641;51.416;5.506;2023-03-14T01:49:54;3.28;;;1.20;;
70247;SDS011;57641;51.416;5.506;2023-03-14T01:52:28;4.68;;;0.82;;
70247;SDS011;57641;51.416;5.506;2023-03-14T01:55:20;7.40;;;1.08;;
70247;SDS011;57641;51.416;5.506;2023-03-14T01:57:49;3.67;;;1.00;;
70247;SDS011;57641;51.416;5.506;2023-03-14T02:00:19;5.13;;;1.48;;
70247;SDS011;57641;51.416;5.506;2023-03-14T02:02:48;5.75;;;1.25;;
70247;SDS011;57641;51.416;5.506;2023-03-14T02:05:21;3.90;;;1.20;;
70247;SDS011;57641;51.416;5.506;2023-03-14T02:07:51;2.95;;;1.30;;
70247;SDS011;57641;51.416;5.506;2023-03-14T02:10:19;5.63;;;1.20;;
70247;SDS011;57641;51.416;5.506;2023-03-14T02:12:47;5.13;;;1.25;;
70247;SDS011;57641;51.416;5.506;2023-03-14T02:15:14;4.43;;;1.15;;
70247;SDS011;57641;51.416;5.506;2023-03-14T02:17:43;6.70;;;1.58;;
70247;SDS011;57641;51.416;5.506;2023-03-14T02:20:13;3.75;;;1.05;;
70247;SDS011;57641;51.416;5.506;2023-03-14T02:22:50;6.22;;;1.25;;
70247;SDS011;57641;51.416;5.506;2023-03-14T02:25:19;6.07;;;1.60;;
70247;SDS011;57641;51.416;5.506;2023-03-14T02:27:48;6.28;;;1.52;;
70247;SDS011;57641;51.416;5.506;2023-03-14T02:30:16;6.13;;;1.50;;
70247;SDS011;57641;51.416;5.506;2023-03-14T02:32:48;5.85;;;1.38;;
70247;SDS011;57641;51.416;5.506;2023-03-14T02:35:18;4.68;;;1.25;;
70247;SDS011;57641;51.416;5.506;2023-03-14T02:37:49;13.10;;;1.52;;
70247;SDS011;57641;51.416;5.506;2023-03-14T02:40:26;3.50;;;1.52;;
70247;SDS011;57641;51.416;5.506;2023-03-14T02:42:51;8.82;;;1.42;;
70247;SDS011;57641;51.416;5.506;2023-03-14T02:47:43;5.10;;;1.33;;
70247;SDS011;57641;51.416;5.506;2023-03-14T02:50:19;5.83;;;1.60;;
70247;SDS011;57641;51.416;5.506;2023-03-14T02:52:47;6.53;;;1.63;;
70247;SDS011;57641;51.416;5.506;2023-03-14T02:55:14;6.28;;;1.30;;
70247;SDS011;57641;51.416;5.506;2023-03-14T02:57:40;5.85;;;1.40;;
70247;SDS011;57641;51.416;5.506;2023-03-14T03:00:08;8.50;;;1.30;;
70247;SDS011;57641;51.416;5.506;2023-03-14T03:02:38;9.60;;;1.40;;
70247;SDS011;57641;51.416;5.506;2023-03-14T03:05:03;6.63;;;1.38;;
70247;SDS011;57641;51.416;5.506;2023-03-14T03:07:29;8.15;;;1.38;;
70247;SDS011;57641;51.416;5.506;2023-03-14T03:09:55;6.68;;;1.30;;
70247;SDS011;57641;51.416;5.506;2023-03-14T03:12:20;6.18;;;1.20;;
70247;SDS011;57641;51.416;5.506;2023-03-14T03:14:46;5.97;;;1.20;;
70247;SDS011;57641;51.416;5.506;2023-03-14T03:17:12;5.97;;;1.73;;
70247;SDS011;57641;51.416;5.506;2023-03-14T03:19:38;7.00;;;1.85;;
70247;SDS011;57641;51.416;5.506;2023-03-14T03:22:04;8.18;;;1.65;;
70247;SDS011;57641;51.416;5.506;2023-03-14T03:24:29;10.48;;;1.90;;
70247;SDS011;57641;51.416;5.506;2023-03-14T03:26:55;5.45;;;1.30;;
70247;SDS011;57641;51.416;5.506;2023-03-14T03:29:20;7.57;;;1.33;;
70247;SDS011;57641;51.416;5.506;2023-03-14T03:31:46;7.22;;;1.33;;
70247;SDS011;57641;51.416;5.506;2023-03-14T03:34:12;3.70;;;1.30;;
70247;SDS011;57641;51.416;5.506;2023-03-14T03:36:39;9.30;;;2.08;;
70247;SDS011;57641;51.416;5.506;2023-03-14T03:39:05;7.65;;;1.83;;
70247;SDS011;57641;51.416;5.506;2023-03-14T03:41:32;6.45;;;1.50;;
70247;SDS011;57641;51.416;5.506;2023-03-14T03:43:58;8.35;;;1.40;;
70247;SDS011;57641;51.416;5.506;2023-03-14T03:46:23;7.85;;;1.63;;
70247;SDS011;57641;51.416;5.506;2023-03-14T03:48:56;9.18;;;2.08;;
70247;SDS011;57641;51.416;5.506;2023-03-14T03:51:30;4.57;;;1.30;;
70247;SDS011;57641;51.416;5.506;2023-03-14T03:53:56;3.95;;;0.93;;
70247;SDS011;57641;51.416;5.506;2023-03-14T03:56:21;5.80;;;1.70;;
70247;SDS011;57641;51.416;5.506;2023-03-14T03:58:47;6.15;;;1.38;;
70247;SDS011;57641;51.416;5.506;2023-03-14T04:01:15;10.85;;;1.67;;
70247;SDS011;57641;51.416;5.506;2023-03-14T04:03:41;2.42;;;0.68;;
70247;SDS011;57641;51.416;5.506;2023-03-14T04:06:10;6.28;;;1.63;;
70247;SDS011;57641;51.416;5.506;2023-03-14T04:08:37;3.22;;;1.02;;
70247;SDS011;57641;51.416;5.506;2023-03-14T04:11:04;5.43;;;1.02;;
70247;SDS011;57641;51.416;5.506;2023-03-14T04:13:30;5.03;;;1.08;;
70247;SDS011;57641;51.416;5.506;2023-03-14T04:15:55;2.75;;;0.90;;
70247;SDS011;57641;51.416;5.506;2023-03-14T04:18:24;5.65;;;1.20;;
70247;SDS011;57641;51.416;5.506;2023-03-14T04:20:51;1.75;;;0.98;;
70247;SDS011;57641;51.416;5.506;2023-03-14T04:23:21;2.15;;;0.82;;
70247;SDS011;57641;51.416;5.506;2023-03-14T04:25:51;2.92;;;0.98;;
70247;SDS011;57641;51.416;5.506;2023-03-14T04:28:20;2.00;;;0.80;;
70247;SDS011;57641;51.416;5.506;2023-03-14T04:30:45;2.60;;;0.82;;
70247;SDS011;57641;51.416;5.506;2023-03-14T04:33:11;3.63;;;0.80;;
70247;SDS011;57641;51.416;5.506;2023-03-14T04:35:39;2.72;;;0.85;;
70247;SDS011;57641;51.416;5.506;2023-03-14T04:38:04;1.70;;;0.95;;
70247;SDS011;57641;51.416;5.506;2023-03-14T04:40:30;4.60;;;1.85;;
70247;SDS011;57641;51.416;5.506;2023-03-14T04:42:55;3.10;;;1.20;;
70247;SDS011;57641;51.416;5.506;2023-03-14T04:45:21;2.20;;;1.13;;
70247;SDS011;57641;51.416;5.506;2023-03-14T04:47:46;3.03;;;1.30;;
70247;SDS011;57641;51.416;5.506;2023-03-14T04:50:11;2.92;;;1.17;;
70247;SDS011;57641;51.416;5.506;2023-03-14T04:52:37;4.47;;;1.30;;
70247;SDS011;57641;51.416;5.506;2023-03-14T04:55:03;5.78;;;1.40;;
70247;SDS011;57641;51.416;5.506;2023-03-14T04:57:29;2.55;;;1.48;;
70247;SDS011;57641;51.416;5.506;2023-03-14T04:59:54;2.65;;;1.30;;
70247;SDS011;57641;51.416;5.506;2023-03-14T05:02:19;7.40;;;1.83;;
70247;SDS011;57641;51.416;5.506;2023-03-14T05:04:45;3.58;;;1.20;;
70247;SDS011;57641;51.416;5.506;2023-03-14T05:07:10;4.28;;;1.80;;
70247;SDS011;57641;51.416;5.506;2023-03-14T05:09:35;3.90;;;1.50;;
70247;SDS011;57641;51.416;5.506;2023-03-14T05:12:01;4.90;;;1.65;;
70247;SDS011;57641;51.416;5.506;2023-03-14T05:14:26;5.47;;;1.95;;
70247;SDS011;57641;51.416;5.506;2023-03-14T05:16:52;3.40;;;1.40;;
70247;SDS011;57641;51.416;5.506;2023-03-14T05:19:17;4.90;;;1.73;;
70247;SDS011;57641;51.416;5.506;2023-03-14T05:21:42;4.47;;;1.80;;
70247;SDS011;57641;51.416;5.506;2023-03-14T05:24:08;5.40;;;2.63;;
70247;SDS011;57641;51.416;5.506;2023-03-14T05:26:33;6.18;;;2.20;;
70247;SDS011;57641;51.416;5.506;2023-03-14T05:28:59;4.50;;;2.47;;
70247;SDS011;57641;51.416;5.506;2023-03-14T05:31:24;4.13;;;2.63;;
70247;SDS011;57641;51.416;5.506;2023-03-14T05:33:50;4.85;;;2.97;;
70247;SDS011;57641;51.416;5.506;2023-03-14T05:36:15;4.82;;;2.72;;
70247;SDS011;57641;51.416;5.506;2023-03-14T05:38:41;7.75;;;3.25;;
70247;SDS011;57641;51.416;5.506;2023-03-14T05:41:06;6.80;;;3.00;;
70247;SDS011;57641;51.416;5.506;2023-03-14T05:43:35;8.15;;;3.28;;
70247;SDS011;57641;51.416;5.506;2023-03-14T05:46:01;4.80;;;3.15;;
70247;SDS011;57641;51.416;5.506;2023-03-14T05:48:26;6.07;;;3.38;;
70247;SDS011;57641;51.416;5.506;2023-03-14T05:50:55;8.48;;;3.50;;
70247;SDS011;57641;51.416;5.506;2023-03-14T05:53:22;7.38;;;3.10;;
70247;SDS011;57641;51.416;5.506;2023-03-14T05:55:50;8.93;;;3.92;;
70247;SDS011;57641;51.416;5.506;2023-03-14T05:58:16;4.38;;;3.08;;
70247;SDS011;57641;51.416;5.506;2023-03-14T06:00:41;6.40;;;3.33;;
70247;SDS011;57641;51.416;5.506;2023-03-14T06:03:07;6.38;;;3.00;;
70247;SDS011;57641;51.416;5.506;2023-03-14T06:05:32;5.32;;;2.50;;
70247;SDS011;57641;51.416;5.506;2023-03-14T06:08:01;5.47;;;2.22;;
70247;SDS011;57641;51.416;5.506;2023-03-14T06:10:26;3.80;;;2.38;;
70247;SDS011;57641;51.416;5.506;2023-03-14T06:12:52;7.05;;;2.80;;
70247;SDS011;57641;51.416;5.506;2023-03-14T06:15:17;5.10;;;2.42;;
70247;SDS011;57641;51.416;5.506;2023-03-14T06:17:43;5.85;;;2.47;;
70247;SDS011;57641;51.416;5.506;2023-03-14T06:20:09;4.47;;;2.08;;
70247;SDS011;57641;51.416;5.506;2023-03-14T06:22:35;4.38;;;2.22;;
70247;SDS011;57641;51.416;5.506;2023-03-14T06:25:01;4.95;;;2.50;;
70247;SDS011;57641;51.416;5.506;2023-03-14T06:27:26;6.78;;;2.03;;
70247;SDS011;57641;51.416;5.506;2023-03-14T06:29:52;6.32;;;2.42;;
70247;SDS011;57641;51.416;5.506;2023-03-14T06:32:17;7.63;;;2.08;;
70247;SDS011;57641;51.416;5.506;2023-03-14T06:34:43;3.45;;;2.13;;
70247;SDS011;57641;51.416;5.506;2023-03-14T06:37:09;2.90;;;2.00;;
70247;SDS011;57641;51.416;5.506;2023-03-14T06:39:35;4.57;;;1.88;;
70247;SDS011;57641;51.416;5.506;2023-03-14T06:42:00;3.15;;;1.90;;
70247;SDS011;57641;51.416;5.506;2023-03-14T06:44:26;2.53;;;1.65;;
70247;SDS011;57641;51.416;5.506;2023-03-14T06:46:54;5.68;;;2.00;;
70247;SDS011;57641;51.416;5.506;2023-03-14T06:49:20;3.83;;;1.70;;
70247;SDS011;57641;51.416;5.506;2023-03-14T06:51:47;3.90;;;1.92;;
70247;SDS011;57641;51.416;5.506;2023-03-14T06:54:12;4.18;;;1.90;;
70247;SDS011;57641;51.416;5.506;2023-03-14T06:56:37;5.32;;;3.28;;
70247;SDS011;57641;51.416;5.506;2023-03-14T06:59:03;6.10;;;2.70;;
70247;SDS011;57641;51.416;5.506;2023-03-14T07:01:29;5.05;;;2.10;;
70247;SDS011;57641;51.416;5.506;2023-03-14T07:03:55;6.00;;;2.30;;
70247;SDS011;57641;51.416;5.506;2023-03-14T07:06:21;4.80;;;2.45;;
70247;SDS011;57641;51.416;5.506;2023-03-14T07:08:47;3.90;;;2.60;;
70247;SDS011;57641;51.416;5.506;2023-03-14T07:11:13;3.70;;;1.92;;
70247;SDS011;57641;51.416;5.506;2023-03-14T07:13:39;5.55;;;2.50;;
70247;SDS011;57641;51.416;5.506;2023-03-14T07:16:06;3.08;;;1.70;;
70247;SDS011;57641;51.416;5.506;2023-03-14T07:18:32;3.70;;;1.80;;
70247;SDS011;57641;51.416;5.506;2023-03-14T07:20:57;4.07;;;1.88;;
70247;SDS011;57641;51.416;5.506;2023-03-14T07:23:23;5.00;;;1.77;;
70247;SDS011;57641;51.416;5.506;2023-03-14T07:25:49;4.78;;;2.20;;
70247;SDS011;57641;51.416;5.506;2023-03-14T07:28:16;2.35;;;1.70;;
70247;SDS011;57641;51.416;5.506;2023-03-14T07:30:42;6.40;;;2.38;;
70247;SDS011;57641;51.416;5.506;2023-03-14T07:33:07;4.80;;;2.33;;
70247;SDS011;57641;51.416;5.506;2023-03-14T07:35:33;5.40;;;2.40;;
70247;SDS011;57641;51.416;5.506;2023-03-14T07:37:59;4.80;;;2.30;;
70247;SDS011;57641;51.416;5.506;2023-03-14T07:40:24;4.35;;;1.85;;
70247;SDS011;57641;51.416;5.506;2023-03-14T07:42:50;3.17;;;1.83;;
70247;SDS011;57641;51.416;5.506;2023-03-14T07:45:18;3.20;;;1.45;;
70247;SDS011;57641;51.416;5.506;2023-03-14T07:47:43;1.95;;;0.88;;
70247;SDS011;57641;51.416;5.506;2023-03-14T07:50:09;1.00;;;0.52;;
70247;SDS011;57641;51.416;5.506;2023-03-14T07:52:35;1.17;;;0.40;;
70247;SDS011;57641;51.416;5.506;2023-03-14T07:55:00;3.55;;;0.50;;
70247;SDS011;57641;51.416;5.506;2023-03-14T07:57:26;0.80;;;0.70;;
70247;SDS011;57641;51.416;5.506;2023-03-14T07:59:52;0.60;;;0.57;;
70247;SDS011;57641;51.416;5.506;2023-03-14T08:02:17;1.52;;;0.60;;
70247;SDS011;57641;51.416;5.506;2023-03-14T08:04:47;1.05;;;0.60;;
70247;SDS011;57641;51.416;5.506;2023-03-14T08:07:13;1.33;;;0.75;;
70247;SDS011;57641;51.416;5.506;2023-03-14T08:09:38;0.90;;;0.82;;
70247;SDS011;57641;51.416;5.506;2023-03-14T08:12:04;2.85;;;1.15;;
70247;SDS011;57641;51.416;5.506;2023-03-14T08:14:30;2.53;;;1.10;;
70247;SDS011;57641;51.416;5.506;2023-03-14T08:16:56;1.25;;;1.05;;
70247;SDS011;57641;51.416;5.506;2023-03-14T08:19:21;2.13;;;1.75;;
70247;SDS011;57641;51.416;5.506;2023-03-14T08:21:47;3.28;;;1.45;;
70247;SDS011;57641;51.416;5.506;2023-03-14T08:24:12;4.28;;;2.10;;
70247;SDS011;57641;51.416;5.506;2023-03-14T08:26:38;4.20;;;2.20;;
70247;SDS011;57641;51.416;5.506;2023-03-14T08:29:04;3.20;;;2.30;;
70247;SDS011;57641;51.416;5.506;2023-03-14T08:31:29;4.40;;;2.42;;
70247;SDS011;57641;51.416;5.506;2023-03-14T08:33:57;2.85;;;2.42;;
70247;SDS011;57641;51.416;5.506;2023-03-14T08:36:24;2.20;;;1.70;;
70247;SDS011;57641;51.416;5.506;2023-03-14T08:38:50;3.45;;;1.88;;
70247;SDS011;57641;51.416;5.506;2023-03-14T08:41:16;3.40;;;2.10;;
70247;SDS011;57641;51.416;5.506;2023-03-14T08:43:41;1.92;;;1.35;;
70247;SDS011;57641;51.416;5.506;2023-03-14T08:46:07;2.80;;;1.30;;
70247;SDS011;57641;51.416;5.506;2023-03-14T08:48:32;2.17;;;1.23;;
70247;SDS011;57641;51.416;5.506;2023-03-14T08:51:05;3.83;;;1.50;;
70247;SDS011;57641;51.416;5.506;2023-03-14T08:53:32;4.03;;;1.50;;
70247;SDS011;57641;51.416;5.506;2023-03-14T08:55:57;2.30;;;1.13;;
70247;SDS011;57641;51.416;5.506;2023-03-14T08:58:23;2.78;;;1.60;;
70247;SDS011;57641;51.416;5.506;2023-03-14T09:00:49;3.80;;;1.80;;
70247;SDS011;57641;51.416;5.506;2023-03-14T09:03:14;3.50;;;1.95;;
70247;SDS011;57641;51.416;5.506;2023-03-14T09:05:40;6.35;;;2.35;;
70247;SDS011;57641;51.416;5.506;2023-03-14T09:08:06;4.38;;;2.00;;
70247;SDS011;57641;51.416;5.506;2023-03-14T09:10:31;4.38;;;1.88;;
70247;SDS011;57641;51.416;5.506;2023-03-14T09:12:57;5.28;;;1.90;;
70247;SDS011;57641;51.416;5.506;2023-03-14T09:15:23;3.22;;;2.05;;
70247;SDS011;57641;51.416;5.506;2023-03-14T09:17:49;5.47;;;1.92;;
70247;SDS011;57641;51.416;5.506;2023-03-14T09:20:18;5.20;;;1.88;;
70247;SDS011;57641;51.416;5.506;2023-03-14T09:22:44;3.78;;;1.50;;
70247;SDS011;57641;51.416;5.506;2023-03-14T09:25:10;3.65;;;1.50;;
70247;SDS011;57641;51.416;5.506;2023-03-14T09:27:36;3.10;;;1.40;;
70247;SDS011;57641;51.416;5.506;2023-03-14T09:30:02;3.22;;;1.30;;
70247;SDS011;57641;51.416;5.506;2023-03-14T09:32:28;2.60;;;1.23;;
70247;SDS011;57641;51.416;5.506;2023-03-14T09:34:53;4.78;;;1.63;;
70247;SDS011;57641;51.416;5.506;2023-03-14T09:37:19;2.17;;;1.20;;
70247;SDS011;57641;51.416;5.506;2023-03-14T09:39:45;1.65;;;1.05;;
70247;SDS011;57641;51.416;5.506;2023-03-14T09:42:13;1.08;;;0.90;;
70247;SDS011;57641;51.416;5.506;2023-03-14T09:47:15;3.83;;;1.52;;
70247;SDS011;57641;51.416;5.506;2023-03-14T09:49:45;3.50;;;1.70;;
70247;SDS011;57641;51.416;5.506;2023-03-14T09:52:13;3.22;;;1.35;;
70247;SDS011;57641;51.416;5.506;2023-03-14T09:57:24;0.80;;;0.80;;
70247;SDS011;57641;51.416;5.506;2023-03-14T09:59:51;2.15;;;0.70;;
70247;SDS011;57641;51.416;5.506;2023-03-14T10:02:21;2.47;;;0.73;;
70247;SDS011;57641;51.416;5.506;2023-03-14T10:04:49;0.40;;;0.40;;
70247;SDS011;57641;51.416;5.506;2023-03-14T10:07:31;1.48;;;0.40;;
70247;SDS011;57641;51.416;5.506;2023-03-14T10:09:57;6.85;;;0.68;;
70247;SDS011;57641;51.416;5.506;2023-03-14T10:12:33;1.23;;;0.30;;
70247;SDS011;57641;51.416;5.506;2023-03-14T10:15:05;0.95;;;0.40;;
70247;SDS011;57641;51.416;5.506;2023-03-14T10:17:48;1.75;;;0.50;;
70247;SDS011;57641;51.416;5.506;2023-03-14T10:23:04;2.03;;;0.45;;
70247;SDS011;57641;51.416;5.506;2023-03-14T10:25:45;1.40;;;0.43;;
70247;SDS011;57641;51.416;5.506;2023-03-14T10:28:24;0.93;;;0.40;;
70247;SDS011;57641;51.416;5.506;2023-03-14T10:30:50;1.27;;;0.43;;
70247;SDS011;57641;51.416;5.506;2023-03-14T10:35:44;2.35;;;0.80;;
70247;SDS011;57641;51.416;5.506;2023-03-14T10:38:15;3.53;;;0.70;;
70247;SDS011;57641;51.416;5.506;2023-03-14T10:40:49;2.75;;;0.60;;
70247;SDS011;57641;51.416;5.506;2023-03-14T10:46:15;3.28;;;0.70;;
70247;SDS011;57641;51.416;5.506;2023-03-14T10:48:42;2.88;;;0.63;;
70247;SDS011;57641;51.416;5.506;2023-03-14T10:53:44;3.67;;;0.85;;
70247;SDS011;57641;51.416;5.506;2023-03-14T10:56:23;3.35;;;0.90;;
70247;SDS011;57641;51.416;5.506;2023-03-14T10:58:51;2.72;;;1.08;;
70247;SDS011;57641;51.416;5.506;2023-03-14T11:12:43;4.05;;;1.20;;
70247;SDS011;57641;51.416;5.506;2023-03-14T11:15:15;4.90;;;1.25;;
70247;SDS011;57641;51.416;5.506;2023-03-14T11:17:48;4.75;;;1.30;;
70247;SDS011;57641;51.416;5.506;2023-03-14T11:20:42;7.65;;;1.15;;
70247;SDS011;57641;51.416;5.506;2023-03-14T11:23:22;7.78;;;1.75;;
70247;SDS011;57641;51.416;5.506;2023-03-14T11:31:50;9.23;;;1.88;;
70247;SDS011;57641;51.416;5.506;2023-03-14T11:34:23;9.70;;;1.90;;
70247;SDS011;57641;51.416;5.506;2023-03-14T11:37:03;6.63;;;1.25;;
70247;SDS011;57641;51.416;5.506;2023-03-14T11:39:38;13.10;;;1.75;;
70247;SDS011;57641;51.416;5.506;2023-03-14T11:42:07;6.97;;;1.48;;
70247;SDS011;57641;51.416;5.506;2023-03-14T11:44:40;10.52;;;1.85;;
70247;SDS011;57641;51.416;5.506;2023-03-14T11:47:12;7.57;;;1.55;;
70247;SDS011;57641;51.416;5.506;2023-03-14T11:52:27;6.85;;;1.65;;
70247;SDS011;57641;51.416;5.506;2023-03-14T11:57:37;11.52;;;2.00;;
70247;SDS011;57641;51.416;5.506;2023-03-14T12:00:16;12.75;;;2.90;;
70247;SDS011;57641;51.416;5.506;2023-03-14T12:10:41;11.05;;;1.85;;
70247;SDS011;57641;51.416;5.506;2023-03-14T12:13:16;6.82;;;2.55;;
70247;SDS011;57641;51.416;5.506;2023-03-14T12:16:26;11.57;;;1.98;;
70247;SDS011;57641;51.416;5.506;2023-03-14T12:18:45;10.00;;;2.30;;
70247;SDS011;57641;51.416;5.506;2023-03-14T12:21:11;11.43;;;2.10;;
70247;SDS011;57641;51.416;5.506;2023-03-14T12:28:51;12.20;;;2.03;;
70247;SDS011;57641;51.416;5.506;2023-03-14T12:31:36;10.98;;;2.33;;
70247;SDS011;57641;51.416;5.506;2023-03-14T12:49:45;7.13;;;1.85;;
70247;SDS011;57641;51.416;5.506;2023-03-14T12:52:13;10.57;;;2.88;;
70247;SDS011;57641;51.416;5.506;2023-03-14T13:00:17;12.65;;;2.08;;
70247;SDS011;57641;51.416;5.506;2023-03-14T13:02:45;13.85;;;2.53;;
70247;SDS011;57641;51.416;5.506;2023-03-14T13:05:15;12.45;;;1.73;;
70247;SDS011;57641;51.416;5.506;2023-03-14T13:10:16;10.65;;;1.92;;
70247;SDS011;57641;51.416;5.506;2023-03-14T13:12:48;13.73;;;3.00;;
70247;SDS011;57641;51.416;5.506;2023-03-14T13:15:27;10.68;;;2.20;;
70247;SDS011;57641;51.416;5.506;2023-03-14T13:18:01;11.95;;;2.55;;
70247;SDS011;57641;51.416;5.506;2023-03-14T13:20:35;10.00;;;1.98;;
70247;SDS011;57641;51.416;5.506;2023-03-14T13:23:26;10.30;;;1.80;;
70247;SDS011;57641;51.416;5.506;2023-03-14T13:25:54;14.18;;;2.55;;
70247;SDS011;57641;51.416;5.506;2023-03-14T13:28:21;14.52;;;2.33;;
70247;SDS011;57641;51.416;5.506;2023-03-14T13:30:48;12.00;;;2.10;;
70247;SDS011;57641;51.416;5.506;2023-03-14T13:33:20;9.50;;;1.60;;
70247;SDS011;57641;51.416;5.506;2023-03-14T13:36:08;6.18;;;1.75;;
70247;SDS011;57641;51.416;5.506;2023-03-14T13:38:35;8.00;;;1.50;;
70247;SDS011;57641;51.416;5.506;2023-03-14T13:41:05;9.07;;;1.50;;
70247;SDS011;57641;51.416;5.506;2023-03-14T13:43:41;6.75;;;1.20;;
70247;SDS011;57641;51.416;5.506;2023-03-14T13:48:46;5.50;;;1.10;;
70247;SDS011;57641;51.416;5.506;2023-03-14T13:51:18;8.43;;;1.30;;
70247;SDS011;57641;51.416;5.506;2023-03-14T13:53:46;7.38;;;1.20;;
70247;SDS011;57641;51.416;5.506;2023-03-14T13:56:24;6.78;;;1.85;;
70247;SDS011;57641;51.416;5.506;2023-03-14T13:58:51;6.88;;;1.17;;
70247;SDS011;57641;51.416;5.506;2023-03-14T14:03:49;8.63;;;1.25;;
70247;SDS011;57641;51.416;5.506;2023-03-14T14:08:58;7.85;;;1.92;;
70247;SDS011;57641;51.416;5.506;2023-03-14T14:11:38;15.93;;;2.20;;
70247;SDS011;57641;51.416;5.506;2023-03-14T14:14:16;5.97;;;1.50;;
70247;SDS011;57641;51.416;5.506;2023-03-14T14:16:46;4.18;;;1.30;;
70247;SDS011;57641;51.416;5.506;2023-03-14T14:19:13;6.03;;;1.20;;
70247;SDS011;57641;51.416;5.506;2023-03-14T14:21:40;6.07;;;1.55;;
70247;SDS011;57641;51.416;5.506;2023-03-14T14:24:09;6.38;;;1.20;;
70247;SDS011;57641;51.416;5.506;2023-03-14T14:26:58;5.60;;;1.00;;
70247;SDS011;57641;51.416;5.506;2023-03-14T14:29:30;4.00;;;1.13;;
70247;SDS011;57641;51.416;5.506;2023-03-14T14:32:09;7.40;;;1.70;;
70247;SDS011;57641;51.416;5.506;2023-03-14T14:34:42;5.63;;;1.20;;
70247;SDS011;57641;51.416;5.506;2023-03-14T14:37:25;6.97;;;1.45;;
70247;SDS011;57641;51.416;5.506;2023-03-14T14:40:00;5.82;;;1.30;;
70247;SDS011;57641;51.416;5.506;2023-03-14T14:42:33;7.50;;;1.58;;
70247;SDS011;57641;51.416;5.506;2023-03-14T14:45:05;7.20;;;1.48;;
70247;SDS011;57641;51.416;5.506;2023-03-14T14:47:47;8.05;;;1.50;;
70247;SDS011;57641;51.416;5.506;2023-03-14T14:53:03;6.95;;;1.30;;
70247;SDS011;57641;51.416;5.506;2023-03-14T14:58:20;6.78;;;1.10;;
70247;SDS011;57641;51.416;5.506;2023-03-14T15:00:53;4.78;;;1.17;;
70247;SDS011;57641;51.416;5.506;2023-03-14T15:03:28;4.22;;;0.80;;
70247;SDS011;57641;51.416;5.506;2023-03-14T15:05:56;4.30;;;1.33;;
70247;SDS011;57641;51.416;5.506;2023-03-14T15:08:23;4.38;;;1.08;;
70247;SDS011;57641;51.416;5.506;2023-03-14T15:10:50;4.10;;;1.10;;
70247;SDS011;57641;51.416;5.506;2023-03-14T15:13:15;3.90;;;1.20;;
70247;SDS011;57641;51.416;5.506;2023-03-14T15:15:44;5.30;;;0.98;;
70247;SDS011;57641;51.416;5.506;2023-03-14T15:18:15;5.35;;;1.67;;
70247;SDS011;57641;51.416;5.506;2023-03-14T15:20:43;4.88;;;1.25;;
70247;SDS011;57641;51.416;5.506;2023-03-14T15:23:10;4.35;;;0.88;;
70247;SDS011;57641;51.416;5.506;2023-03-14T15:25:37;7.25;;;1.20;;
70247;SDS011;57641;51.416;5.506;2023-03-14T15:28:14;5.18;;;0.95;;
70247;SDS011;57641;51.416;5.506;2023-03-14T15:30:41;6.50;;;1.27;;
70247;SDS011;57641;51.416;5.506;2023-03-14T15:33:06;3.05;;;0.95;;
70247;SDS011;57641;51.416;5.506;2023-03-14T15:35:36;7.70;;;1.65;;
70247;SDS011;57641;51.416;5.506;2023-03-14T15:38:03;4.88;;;1.38;;
70247;SDS011;57641;51.416;5.506;2023-03-14T15:40:29;5.53;;;1.38;;
70247;SDS011;57641;51.416;5.506;2023-03-14T15:42:55;7.43;;;1.38;;
70247;SDS011;57641;51.416;5.506;2023-03-14T15:45:21;7.70;;;1.38;;
70247;SDS011;57641;51.416;5.506;2023-03-14T15:47:47;8.35;;;1.45;;
70247;SDS011;57641;51.416;5.506;2023-03-14T15:50:12;4.45;;;1.80;;
70247;SDS011;57641;51.416;5.506;2023-03-14T15:52:38;4.63;;;1.17;;
70247;SDS011;57641;51.416;5.506;2023-03-14T15:55:04;5.70;;;1.20;;
70247;SDS011;57641;51.416;5.506;2023-03-14T15:57:30;4.57;;;0.88;;
70247;SDS011;57641;51.416;5.506;2023-03-14T15:59:56;4.95;;;1.10;;
70247;SDS011;57641;51.416;5.506;2023-03-14T16:02:21;5.50;;;1.13;;
70247;SDS011;57641;51.416;5.506;2023-03-14T16:04:47;4.80;;;1.35;;
70247;SDS011;57641;51.416;5.506;2023-03-14T16:07:12;6.90;;;1.10;;
70247;SDS011;57641;51.416;5.506;2023-03-14T16:09:38;8.10;;;1.23;;
70247;SDS011;57641;51.416;5.506;2023-03-14T16:12:03;6.45;;;1.48;;
70247;SDS011;57641;51.416;5.506;2023-03-14T16:14:30;12.38;;;1.80;;
70247;SDS011;57641;51.416;5.506;2023-03-14T16:16:56;4.82;;;1.40;;
70247;SDS011;57641;51.416;5.506;2023-03-14T16:19:24;4.35;;;0.90;;
70247;SDS011;57641;51.416;5.506;2023-03-14T16:21:51;6.63;;;1.17;;
70247;SDS011;57641;51.416;5.506;2023-03-14T16:24:17;8.85;;;1.38;;